Time;durP1;ratioP1;P1;durP2;ratioP2;P2;SDS_P1;SDS_P2;PMS_P1;PMS_P2;Temp;Humidity;BMP_temperature;BMP_pressure;BME280_temperature;BME280_humidity;BME280_pressure;Samples;Min_cycle;Max_cycle;Signal;HPM_P1;HPM_P2
2022/11/11 00:01:01;;;;;;;11.43;9.43;;;15.70;99.90;;;;;;4591956;19;20017;-24
2022/11/11 00:02:32;;;;;;;13.63;10.00;;;15.70;99.90;;;;;;4591939;19;20019;-24
2022/11/11 00:04:04;;;;;;;;;;;15.70;99.90;;;;;;4592639;19;20042;-23
2022/11/11 00:05:35;;;;;;;16.33;9.20;;;15.70;99.90;;;;;;4591817;19;19911;-23
2022/11/11 00:07:06;;;;;;;12.30;8.88;;;15.70;99.90;;;;;;4591923;19;20484;-23
2022/11/11 00:08:37;;;;;;;15.75;9.35;;;15.70;99.90;;;;;;4591480;19;20010;-22
2022/11/11 00:10:08;;;;;;;12.43;9.25;;;15.70;99.90;;;;;;4591704;19;20022;-23
2022/11/11 00:11:39;;;;;;;12.45;8.52;;;15.70;99.90;;;;;;4591693;19;20015;-22
2022/11/11 00:13:10;;;;;;;15.02;8.38;;;15.70;99.90;;;;;;4592422;19;20329;-25
2022/11/11 00:14:41;;;;;;;13.48;7.97;;;15.70;99.90;;;;;;4591321;19;20011;-23
2022/11/11 00:16:17;;;;;;;11.55;8.25;;;15.70;99.90;;;;;;4590639;19;20496;-22
2022/11/11 00:25:15;;;;;;;12.38;8.50;;;15.70;99.90;;;;;;4588910;19;20015;-23
2022/11/11 00:26:46;;;;;;;12.70;8.57;;;15.70;99.90;;;;;;4588851;19;20010;-23
2022/11/11 00:28:17;;;;;;;12.32;8.07;;;15.70;99.90;;;;;;4589004;19;20020;-23
2022/11/11 00:29:48;;;;;;;13.02;8.65;;;15.70;99.90;;;;;;4588903;19;20017;-24
2022/11/11 00:31:19;;;;;;;12.48;8.13;;;15.70;99.90;;;;;;4588891;19;20010;-23
2022/11/11 00:32:51;;;;;;;13.32;8.23;;;15.70;99.90;;;;;;4589023;19;20021;-23
2022/11/11 00:34:22;;;;;;;13.88;8.25;;;15.70;99.90;;;;;;4588840;19;20101;-23
2022/11/11 00:35:53;;;;;;;12.85;7.85;;;15.70;99.90;;;;;;4588151;19;20003;-23
2022/11/11 00:37:24;;;;;;;12.85;8.50;;;15.70;99.90;;;;;;4588803;19;20010;-23
2022/11/11 00:38:57;;;;;;;11.13;7.78;;;15.70;99.90;;;;;;4588539;19;20007;-23
2022/11/11 00:40:28;;;;;;;14.80;7.65;;;15.70;99.90;;;;;;4588789;19;20017;-22
2022/11/11 00:41:59;;;;;;;12.70;8.27;;;15.70;99.90;;;;;;4589192;19;20019;-22
2022/11/11 00:43:30;;;;;;;14.25;7.47;;;15.70;99.90;;;;;;4588793;19;20081;-23
2022/11/11 00:45:01;;;;;;;12.52;7.50;;;15.70;99.90;;;;;;4588880;19;20011;-23
2022/11/11 00:52:13;;;;;;;15.35;8.15;;;15.70;99.90;;;;;;4593098;19;20011;-23
2022/11/11 00:53:44;;;;;;;12.70;7.78;;;15.70;99.90;;;;;;4590929;19;20220;-23
2022/11/11 00:55:15;;;;;;;11.40;8.30;;;15.70;99.90;;;;;;4590897;19;20011;-23
2022/11/11 00:56:46;;;;;;;12.77;9.10;;;15.70;99.90;;;;;;4591538;19;20017;-23
2022/11/11 00:58:17;;;;;;;13.63;8.90;;;15.70;99.90;;;;;;4590549;19;20018;-22
2022/11/11 00:59:48;;;;;;;13.70;8.30;;;15.70;99.90;;;;;;4590863;19;20006;-22
2022/11/11 01:01:20;;;;;;;12.15;8.07;;;15.70;99.90;;;;;;4590414;19;20478;-22
2022/11/11 01:02:51;;;;;;;17.17;9.02;;;15.70;99.90;;;;;;4590615;19;20015;-23
2022/11/11 01:04:22;;;;;;;17.05;9.10;;;15.70;99.90;;;;;;4590563;19;20010;-23
2022/11/11 01:05:53;;;;;;;14.98;8.00;;;15.60;99.90;;;;;;4590787;19;20010;-24
2022/11/11 01:07:24;;;;;;;13.35;8.43;;;15.60;99.90;;;;;;4591157;19;20015;-24
2022/11/11 01:08:55;;;;;;;12.55;7.88;;;15.70;99.90;;;;;;4590251;19;20006;-26
2022/11/11 01:10:40;;;;;;;13.85;8.98;;;15.60;99.90;;;;;;4590581;19;20014;-23
2022/11/11 01:12:11;;;;;;;12.85;8.15;;;15.70;99.90;;;;;;4590858;19;20472;-23
2022/11/11 01:13:43;;;;;;;11.20;8.55;;;15.70;99.90;;;;;;4590094;19;20503;-22
2022/11/11 01:15:14;;;;;;;13.25;7.88;;;15.70;99.90;;;;;;4589460;19;20095;-23
2022/11/11 01:16:46;;;;;;;11.25;8.55;;;15.70;99.90;;;;;;4590310;19;20014;-23
2022/11/11 01:18:19;;;;;;;11.40;8.18;;;15.70;99.90;;;;;;4590325;19;20027;-22
2022/11/11 01:19:51;;;;;;;14.02;8.38;;;15.60;99.90;;;;;;4589849;19;20096;-22
2022/11/11 01:21:23;;;;;;;11.20;7.03;;;15.60;99.90;;;;;;4590067;19;20014;-23
2022/11/11 01:22:54;;;;;;;13.45;8.15;;;15.70;99.90;;;;;;4590319;19;20014;-23
2022/11/11 01:24:25;;;;;;;10.35;6.88;;;15.70;99.90;;;;;;4590194;19;20037;-25
2022/11/11 01:26:03;;;;;;;10.35;7.40;;;15.70;99.90;;;;;;4590527;19;20460;-22
2022/11/11 01:27:34;;;;;;;12.05;7.18;;;15.60;99.90;;;;;;4590163;19;20011;-23
2022/11/11 01:29:06;;;;;;;11.07;7.57;;;15.60;99.90;;;;;;4590135;19;20352;-23
2022/11/11 01:30:37;;;;;;;12.20;7.72;;;15.60;99.90;;;;;;4589856;19;20015;-22
2022/11/11 01:32:08;;;;;;;14.30;8.00;;;15.60;99.90;;;;;;4589738;19;20018;-23
2022/11/11 01:33:39;;;;;;;12.27;7.72;;;15.60;99.90;;;;;;4590527;19;20031;-24
2022/11/11 01:35:11;;;;;;;11.35;7.47;;;15.60;99.90;;;;;;4595081;19;20018;-23
2022/11/11 01:36:42;;;;;;;11.18;7.20;;;15.70;99.90;;;;;;4593770;19;20006;-23
2022/11/11 01:38:13;;;;;;;12.90;7.93;;;15.60;99.90;;;;;;4594418;19;20018;-23
2022/11/11 01:39:44;;;;;;;11.90;7.45;;;15.60;99.90;;;;;;4594583;19;20008;-23
2022/11/11 01:41:32;;;;;;;14.98;7.88;;;15.60;99.90;;;;;;4594781;19;20482;-22
2022/11/11 01:43:03;;;;;;;13.85;7.88;;;15.60;99.90;;;;;;4593777;19;20015;-23
2022/11/11 01:44:45;;;;;;;10.90;6.85;;;15.60;99.90;;;;;;4594387;19;20014;-24
2022/11/11 01:46:39;;;;;;;12.63;7.60;;;15.60;99.90;;;;;;4594461;19;20018;-23
2022/11/11 01:50:18;;;;;;;12.93;7.30;;;15.60;99.90;;;;;;4592818;19;20018;-23
2022/11/11 01:52:05;;;;;;;10.10;7.53;;;15.60;99.90;;;;;;4593536;19;20022;-23
2022/11/11 01:53:36;;;;;;;11.10;7.13;;;15.60;99.90;;;;;;4593431;19;20018;-23
2022/11/11 01:55:14;;;;;;;11.88;6.60;;;15.60;99.90;;;;;;4593817;19;20010;-22
2022/11/11 01:56:47;;;;;;;15.38;7.47;;;15.60;99.90;;;;;;4594123;19;20019;-22
2022/11/11 01:58:18;;;;;;;13.02;7.32;;;15.60;99.90;;;;;;4593248;19;20021;-22
2022/11/11 01:59:51;;;;;;;14.60;7.70;;;15.60;99.90;;;;;;4593896;19;20018;-23
2022/11/11 02:01:23;;;;;;;13.85;8.25;;;15.70;99.90;;;;;;4592076;19;20025;-23
2022/11/11 02:02:58;;;;;;;15.75;8.38;;;15.60;99.90;;;;;;4593322;19;20017;-23
2022/11/11 02:06:20;;;;;;;12.63;7.30;;;15.60;99.90;;;;;;4592984;19;20007;-23
2022/11/11 02:07:51;;;;;;;13.60;7.35;;;15.60;99.90;;;;;;4593190;19;20078;-23
2022/11/11 02:09:22;;;;;;;11.02;7.50;;;15.60;99.90;;;;;;4592831;19;20031;-23
2022/11/11 02:10:53;;;;;;;10.90;7.30;;;15.60;99.90;;;;;;4592924;19;20014;-23
2022/11/11 02:16:04;;;;;;;11.98;6.57;;;15.60;99.90;;;;;;4592582;19;20027;-24
2022/11/11 02:17:35;;;;;;;13.55;7.40;;;15.60;99.90;;;;;;4592751;19;20011;-23
2022/11/11 02:19:06;;;;;;;12.50;7.25;;;15.60;99.90;;;;;;4593005;19;20007;-24
2022/11/11 02:20:41;;;;;;;12.32;7.60;;;15.70;99.90;;;;;;4592624;19;20021;-22
2022/11/11 02:22:16;;;;;;;10.70;7.47;;;15.60;99.90;;;;;;4593555;19;20015;-22
2022/11/11 02:24:07;;;;;;;12.68;7.65;;;15.60;99.90;;;;;;4592631;19;20038;-22
2022/11/11 02:25:39;;;;;;;13.90;7.57;;;15.60;99.90;;;;;;4592446;19;20018;-23
2022/11/11 02:27:12;;;;;;;11.65;7.82;;;15.60;99.90;;;;;;4592332;19;20011;-23
2022/11/11 02:28:43;;;;;;;10.70;7.07;;;15.60;99.90;;;;;;4592599;19;20374;-22
2022/11/11 02:30:14;;;;;;;11.27;6.68;;;15.60;99.90;;;;;;4592534;19;20007;-22
2022/11/11 02:31:45;;;;;;;9.88;6.70;;;15.70;99.90;;;;;;4593195;19;20348;-23
2022/11/11 02:33:16;;;;;;;12.48;7.93;;;15.60;99.90;;;;;;4594284;19;20015;-22
2022/11/11 02:34:48;;;;;;;10.27;6.50;;;15.60;99.90;;;;;;4594227;19;20026;-22
2022/11/11 02:36:19;;;;;;;10.25;7.13;;;15.60;99.90;;;;;;4592011;19;20017;-23
2022/11/11 02:37:51;;;;;;;10.82;6.60;;;15.60;99.90;;;;;;4592433;19;20017;-23
2022/11/11 02:39:23;;;;;;;10.88;6.68;;;15.60;99.90;;;;;;4592520;19;20090;-22
2022/11/11 02:42:43;;;;;;;10.48;6.85;;;15.60;99.90;;;;;;4592182;19;19919;-23
2022/11/11 02:44:15;;;;;;;9.38;6.80;;;15.60;99.90;;;;;;4593368;19;20006;-22
2022/11/11 02:45:46;;;;;;;9.88;6.57;;;15.60;99.90;;;;;;4593651;19;20475;-22
2022/11/11 02:47:17;;;;;;;13.13;6.80;;;15.60;99.90;;;;;;4592601;19;20019;-23
2022/11/11 02:48:48;;;;;;;14.25;7.30;;;15.60;99.90;;;;;;4591741;19;20492;-26
2022/11/11 02:50:20;;;;;;;9.55;6.63;;;15.60;99.90;;;;;;4593577;19;20028;-23
2022/11/11 02:52:11;;;;;;;12.80;6.57;;;15.60;99.90;;;;;;4592481;19;20010;-22
2022/11/11 02:53:42;;;;;;;10.80;6.88;;;15.60;99.90;;;;;;4590906;19;20010;-23
2022/11/11 02:55:14;;;;;;;10.10;6.38;;;15.60;99.90;;;;;;4590462;19;20010;-23
2022/11/11 02:58:34;;;;;;;9.52;6.35;;;15.60;99.90;;;;;;4590881;19;20014;-22
2022/11/11 03:00:06;;;;;;;;;;;15.60;99.90;;;;;;4592138;19;20011;-22
2022/11/11 03:01:37;;;;;;;10.13;6.45;;;15.60;99.90;;;;;;4590900;19;19914;-23
2022/11/11 03:03:09;;;;;;;11.00;6.60;;;15.60;99.90;;;;;;4590775;19;20019;-22
2022/11/11 03:04:40;;;;;;;11.15;7.47;;;15.60;99.90;;;;;;4591348;19;20105;-22
2022/11/11 03:06:11;;;;;;;;;;;15.60;99.90;;;;;;4590994;19;20011;-22
2022/11/11 03:07:43;;;;;;;9.93;6.40;;;15.60;99.90;;;;;;4590679;19;19918;-23
2022/11/11 03:09:14;;;;;;;10.10;5.95;;;15.60;99.90;;;;;;4590567;19;20018;-24
2022/11/11 03:10:45;;;;;;;9.80;6.35;;;15.60;99.90;;;;;;4590820;19;20002;-25
2022/11/11 03:12:16;;;;;;;8.55;5.38;;;15.60;99.90;;;;;;4591288;19;20048;-22
2022/11/11 03:13:47;;;;;;;12.13;6.18;;;15.60;99.90;;;;;;4590499;19;20010;-23
2022/11/11 03:15:18;;;;;;;11.23;6.53;;;15.60;99.90;;;;;;4590120;19;20378;-23
2022/11/11 03:18:40;;;;;;;10.55;6.03;;;15.60;99.90;;;;;;4591103;19;19991;-23
2022/11/11 03:22:22;;;;;;;10.43;6.38;;;15.60;99.90;;;;;;4590344;19;20021;-23
2022/11/11 03:23:53;;;;;;;8.18;5.88;;;15.60;99.90;;;;;;4590315;19;20025;-22
2022/11/11 03:25:36;;;;;;;10.77;6.85;;;15.60;99.90;;;;;;4591623;19;20541;-22
2022/11/11 03:27:07;;;;;;;9.75;6.18;;;15.60;99.90;;;;;;4592918;19;20467;-22
2022/11/11 03:28:38;;;;;;;8.88;5.82;;;15.60;99.90;;;;;;4592716;19;20034;-22
2022/11/11 03:30:10;;;;;;;8.98;5.70;;;15.60;99.90;;;;;;4592617;19;20010;-22
2022/11/11 03:31:41;;;;;;;8.63;5.65;;;15.60;99.90;;;;;;4593027;19;20030;-23
2022/11/11 03:33:13;;;;;;;8.38;5.60;;;15.60;99.90;;;;;;4592542;19;20070;-23
2022/11/11 03:34:44;;;;;;;10.90;5.68;;;15.60;99.90;;;;;;4592321;19;20055;-23
2022/11/11 03:36:15;;;;;;;9.98;6.43;;;15.60;99.90;;;;;;4591344;19;20015;-22
2022/11/11 03:39:36;;;;;;;10.32;5.97;;;15.60;99.90;;;;;;4592327;19;20002;-23
2022/11/11 03:41:07;;;;;;;11.43;6.97;;;15.60;99.90;;;;;;4592448;19;20018;-22
2022/11/11 03:42:40;;;;;;;10.10;6.47;;;15.60;99.90;;;;;;4591964;19;20014;-24
2022/11/11 03:44:11;;;;;;;11.50;6.50;;;15.60;99.90;;;;;;4592500;19;20010;-22
2022/11/11 03:45:43;;;;;;;11.95;6.85;;;15.60;99.90;;;;;;4592807;19;20333;-24
2022/11/11 03:47:15;;;;;;;13.35;6.93;;;15.60;99.90;;;;;;4591717;19;20071;-24
2022/11/11 03:48:46;;;;;;;12.15;6.80;;;15.60;99.90;;;;;;4591162;19;20015;-23
2022/11/11 03:50:17;;;;;;;9.13;5.85;;;15.60;99.90;;;;;;4592537;19;20011;-23
2022/11/11 03:51:48;;;;;;;12.27;6.90;;;15.60;99.90;;;;;;4592227;19;20019;-23
2022/11/11 03:53:20;;;;;;;11.35;6.57;;;15.60;99.90;;;;;;4591920;19;20424;-24
2022/11/11 03:54:51;;;;;;;;;;;15.60;99.90;;;;;;4592768;19;20073;-24
2022/11/11 03:56:22;;;;;;;11.25;7.10;;;15.60;99.90;;;;;;4589959;19;19919;-25
2022/11/11 03:57:53;;;;;;;12.27;6.85;;;15.60;99.90;;;;;;4592041;19;20453;-22
2022/11/11 03:59:24;;;;;;;12.48;6.78;;;15.60;99.90;;;;;;4591673;19;20040;-22
2022/11/11 04:00:55;;;;;;;11.55;6.70;;;15.60;99.90;;;;;;4592260;19;20017;-23
2022/11/11 04:11:41;;;;;;;10.48;7.45;;;15.60;99.90;;;;;;4590318;19;20018;-24
2022/11/11 04:16:51;;;;;;;11.18;6.85;;;15.60;99.90;;;;;;4591986;19;20011;-22
2022/11/11 04:21:42;;;;;;;11.98;6.78;;;15.60;99.90;;;;;;4591411;19;20002;-23
2022/11/11 04:22:03;;;;;;;10.38;6.45;;;15.60;99.90;;;;;;4591167;19;20022;-22
2022/11/11 04:23:34;;;;;;;11.48;6.25;;;15.60;99.90;;;;;;4589990;19;20017;-22
2022/11/11 04:26:57;;;;;;;9.82;6.32;;;15.60;99.90;;;;;;4591241;19;19997;-23
2022/11/11 04:30:17;;;;;;;10.02;6.45;;;15.60;99.90;;;;;;4591567;19;20027;-23
2022/11/11 04:33:39;;;;;;;9.57;6.35;;;15.60;99.90;;;;;;4591672;19;20018;-24
2022/11/11 04:35:11;;;;;;;8.85;6.60;;;15.60;99.90;;;;;;4590812;19;20018;-23
2022/11/11 04:36:42;;;;;;;9.70;6.13;;;15.60;99.90;;;;;;4590958;19;20020;-25
2022/11/11 04:41:52;;;;;;;8.43;5.95;;;15.60;99.90;;;;;;4591236;19;20007;-22
2022/11/11 04:43:24;;;;;;;10.00;5.85;;;15.60;99.90;;;;;;4590907;19;20074;-25
2022/11/11 04:46:44;;;;;;;11.95;6.32;;;15.70;99.90;;;;;;4590930;19;20019;-23
2022/11/11 04:48:17;;;;;;;9.20;6.53;;;15.70;99.90;;;;;;4589931;19;20095;-24
2022/11/11 04:49:48;;;;;;;11.10;7.88;;;15.50;99.90;;;;;;4590770;19;20014;-23
2022/11/11 04:51:19;;;;;;;10.50;8.13;;;14.40;99.90;;;;;;4590945;19;20031;-22
2022/11/11 04:52:50;;;;;;;10.40;8.05;;;13.90;99.90;;;;;;4591270;19;20023;-23
2022/11/11 04:54:21;;;;;;;9.50;7.82;;;13.60;99.90;;;;;;4591377;19;20011;-22
2022/11/11 04:57:43;;;;;;;11.37;8.37;;;13.40;99.90;;;;;;4590752;19;20015;-23
2022/11/11 04:59:18;;;;;;;9.83;7.40;;;13.40;99.90;;;;;;4591064;19;20110;-23
2022/11/11 05:00:50;;;;;;;11.07;6.80;;;13.60;99.90;;;;;;4589764;19;20030;-25
2022/11/11 05:04:11;;;;;;;11.23;6.50;;;14.40;99.90;;;;;;4590608;19;20011;-23
2022/11/11 05:09:36;;;;;;;9.43;6.60;;;15.00;99.90;;;;;;4587522;19;20019;-24
2022/11/11 05:11:07;;;;;;;14.48;6.97;;;15.10;99.90;;;;;;4588503;19;20010;-23
2022/11/11 05:12:39;;;;;;;13.15;6.70;;;15.20;99.90;;;;;;4588013;19;20086;-24
2022/11/11 05:21:28;;;;;;;11.48;6.65;;;15.40;99.90;;;;;;4588006;19;20079;-23
2022/11/11 05:23:00;;;;;;;10.10;6.55;;;15.40;99.90;;;;;;4587178;19;20010;-24
2022/11/11 05:26:20;;;;;;;10.57;6.03;;;15.40;99.90;;;;;;4587719;19;20027;-23
2022/11/11 05:27:52;;;;;;;11.20;5.93;;;15.50;99.90;;;;;;4587039;19;20810;-25
2022/11/11 05:29:24;;;;;;;10.07;5.28;;;15.50;99.90;;;;;;4586586;19;20484;-25
2022/11/11 05:30:55;;;;;;;9.98;5.93;;;15.50;99.90;;;;;;4586437;19;20013;-23
2022/11/11 05:32:26;;;;;;;9.38;5.55;;;15.50;99.90;;;;;;4585922;19;20104;-23
2022/11/11 05:33:57;;;;;;;10.63;6.70;;;15.50;99.90;;;;;;4588846;19;20385;-23
2022/11/11 05:35:28;;;;;;;9.60;6.40;;;15.50;99.90;;;;;;4586264;19;20073;-24
2022/11/11 05:37:00;;;;;;;12.43;5.90;;;15.50;99.90;;;;;;4588002;19;20098;-25
2022/11/11 05:38:31;;;;;;;10.32;6.18;;;15.50;99.90;;;;;;4587902;19;20010;-23
2022/11/11 05:40:02;;;;;;;8.77;6.43;;;15.50;99.90;;;;;;4587953;19;20007;-23
2022/11/11 05:41:33;;;;;;;;;;;15.50;99.90;;;;;;4588500;19;20014;-23
2022/11/11 05:43:05;;;;;;;9.73;6.10;;;15.50;99.90;;;;;;4587035;19;19910;-22
2022/11/11 05:44:36;;;;;;;10.27;6.15;;;15.50;99.90;;;;;;4586755;19;20543;-23
2022/11/11 05:46:07;;;;;;;9.68;6.03;;;15.50;99.90;;;;;;4586607;19;20014;-23
2022/11/11 05:47:39;;;;;;;12.00;6.57;;;15.50;99.90;;;;;;4587372;19;20022;-23
2022/11/11 05:49:16;;;;;;;10.13;6.25;;;15.50;99.90;;;;;;4589545;19;20043;-23
2022/11/11 05:50:47;;;;;;;10.30;6.68;;;15.50;99.90;;;;;;4590503;19;20011;-25
2022/11/11 05:52:18;;;;;;;14.25;7.47;;;15.50;99.90;;;;;;4589893;19;20014;-23
2022/11/11 05:53:50;;;;;;;;;;;15.50;99.90;;;;;;4590975;19;20026;-23
2022/11/11 05:55:21;;;;;;;11.55;6.22;;;15.50;99.90;;;;;;4588090;19;19923;-23
2022/11/11 05:56:52;;;;;;;10.18;6.45;;;15.50;99.90;;;;;;4588062;19;20007;-23
2022/11/11 05:58:23;;;;;;;13.27;6.35;;;15.50;99.90;;;;;;4587939;19;20010;-23
2022/11/11 05:59:54;;;;;;;10.52;6.07;;;15.50;99.90;;;;;;4589418;19;20042;-23
2022/11/11 06:01:25;;;;;;;10.18;6.28;;;15.60;99.90;;;;;;4589564;19;20014;-25
2022/11/11 06:03:04;;;;;;;14.10;7.07;;;15.60;99.90;;;;;;4586790;19;20010;-23
2022/11/11 06:04:35;;;;;;;10.45;6.35;;;15.60;99.90;;;;;;4589028;19;20504;-23
2022/11/11 06:06:07;;;;;;;10.85;6.25;;;15.60;99.90;;;;;;4588485;19;20025;-22
2022/11/11 06:07:39;;;;;;;15.50;7.20;;;15.60;99.90;;;;;;4587605;19;20396;-23
2022/11/11 06:09:10;;;;;;;11.82;7.00;;;15.50;99.90;;;;;;4586400;19;20042;-25
2022/11/11 06:10:42;;;;;;;11.30;6.35;;;15.50;99.90;;;;;;4589888;19;20488;-24
2022/11/11 06:12:13;;;;;;;13.23;7.18;;;15.50;99.90;;;;;;4589940;19;20038;-26
2022/11/11 06:13:44;;;;;;;12.88;7.18;;;15.50;99.90;;;;;;4588816;19;20125;-23
2022/11/11 06:15:15;;;;;;;11.35;7.03;;;15.60;99.90;;;;;;4588572;19;20010;-24
2022/11/11 06:17:05;;;;;;;12.85;6.82;;;15.60;99.90;;;;;;4589219;19;20017;-23
2022/11/11 06:18:36;;;;;;;10.40;7.00;;;15.60;99.90;;;;;;4589061;19;20018;-23
2022/11/11 06:20:08;;;;;;;10.23;6.38;;;15.60;99.90;;;;;;4590863;19;20026;-22
2022/11/11 06:21:57;;;;;;;10.05;6.40;;;15.60;99.90;;;;;;4593927;19;20570;-25
2022/11/11 06:23:28;;;;;;;10.73;6.40;;;15.60;99.90;;;;;;4594021;19;20019;-23
2022/11/11 06:26:11;;;;;;;14.55;7.70;;;15.60;99.90;;;;;;4593772;19;20015;-23
2022/11/11 06:26:50;;;;;;;10.43;6.75;;;15.60;99.90;;;;;;4593742;19;20010;-22
2022/11/11 06:28:22;;;;;;;11.82;6.53;;;15.50;99.90;;;;;;4593854;19;20022;-23
2022/11/11 06:29:53;;;;;;;12.20;6.78;;;15.60;99.90;;;;;;4593072;19;20326;-24
2022/11/11 06:31:25;;;;;;;9.27;6.30;;;15.50;99.90;;;;;;4593574;19;20014;-24
2022/11/11 06:32:56;;;;;;;;;;;15.60;99.90;;;;;;4591010;19;20347;-23
2022/11/11 06:34:27;;;;;;;12.77;7.43;;;15.50;99.90;;;;;;4592873;19;19919;-24
2022/11/11 06:35:59;;;;;;;10.48;6.22;;;15.50;99.90;;;;;;4592682;19;20014;-22
2022/11/11 06:37:30;;;;;;;12.38;6.07;;;15.50;99.90;;;;;;4592025;19;20011;-23
2022/11/11 06:39:01;;;;;;;11.95;6.90;;;15.50;99.90;;;;;;4593934;19;20018;-24
2022/11/11 06:40:34;;;;;;;9.45;5.95;;;15.50;99.90;;;;;;4591768;19;20108;-24
2022/11/11 06:42:05;;;;;;;11.48;6.97;;;15.50;99.90;;;;;;4593555;19;20017;-23
2022/11/11 06:43:36;;;;;;;9.50;6.10;;;15.60;99.90;;;;;;4593203;19;20026;-24
2022/11/11 06:45:08;;;;;;;11.38;6.53;;;15.60;99.90;;;;;;4592743;19;20509;-23
2022/11/11 06:46:39;;;;;;;;;;;15.70;99.90;;;;;;4594950;19;20031;-23
2022/11/11 06:48:10;;;;;;;8.82;6.90;;;15.70;99.90;;;;;;4590620;19;20448;-23
2022/11/11 06:49:41;;;;;;;9.68;7.07;;;15.30;99.90;;;;;;4593566;19;20460;-24
2022/11/11 06:51:13;;;;;;;8.77;6.97;;;14.30;99.90;;;;;;4594639;19;20027;-23
2022/11/11 06:52:44;;;;;;;10.57;8.03;;;13.70;99.90;;;;;;4591113;19;20366;-25
2022/11/11 06:54:15;;;;;;;8.88;7.55;;;13.50;99.90;;;;;;4593508;19;20010;-26
2022/11/11 06:55:47;;;;;;;11.90;8.02;;;13.40;99.90;;;;;;4592915;19;20664;-26
2022/11/11 06:57:18;;;;;;;11.75;8.80;;;13.30;99.90;;;;;;4593577;19;20007;-23
2022/11/11 06:58:49;;;;;;;9.85;8.02;;;13.30;99.90;;;;;;4593361;19;20070;-23
2022/11/11 07:00:20;;;;;;;9.45;8.18;;;13.30;99.90;;;;;;4593604;19;20014;-22
2022/11/11 07:01:51;;;;;;;11.00;8.32;;;13.30;99.90;;;;;;4591745;19;20405;-26
2022/11/11 07:03:22;;;;;;;11.85;8.13;;;13.20;99.90;;;;;;4594281;19;20014;-22
2022/11/11 07:04:53;;;;;;;10.43;8.00;;;13.20;99.90;;;;;;4592306;19;20086;-22
2022/11/11 07:06:24;;;;;;;9.68;7.57;;;13.20;99.90;;;;;;4592326;19;20038;-22
2022/11/11 07:07:56;;;;;;;9.40;7.28;;;13.20;99.90;;;;;;4592798;19;20380;-22
2022/11/11 07:09:27;;;;;;;11.05;7.35;;;13.20;99.90;;;;;;4591048;19;20010;-23
2022/11/11 07:10:58;;;;;;;10.82;7.13;;;13.10;99.90;;;;;;4593359;19;20015;-22
2022/11/11 07:12:29;;;;;;;9.75;6.47;;;13.30;99.90;;;;;;4591437;19;20015;-24
2022/11/11 07:14:01;;;;;;;8.95;6.22;;;13.60;99.90;;;;;;4593624;19;20014;-23
2022/11/11 07:15:32;;;;;;;10.02;6.18;;;13.90;99.90;;;;;;4592151;19;20015;-23
2022/11/11 07:17:03;;;;;;;9.05;6.18;;;14.20;99.90;;;;;;4593013;19;20082;-23
2022/11/11 07:18:34;;;;;;;9.82;6.07;;;14.50;99.90;;;;;;4591694;19;20078;-24
2022/11/11 07:20:07;;;;;;;9.35;5.05;;;14.60;99.90;;;;;;4593302;19;20027;-23
2022/11/11 07:21:38;;;;;;;10.47;5.90;;;14.70;99.90;;;;;;4592323;19;20011;-26
2022/11/11 07:23:09;;;;;;;8.85;5.75;;;14.80;99.90;;;;;;4590476;19;20038;-24
2022/11/11 07:24:40;;;;;;;10.25;6.13;;;14.90;99.90;;;;;;4589377;19;20006;-26
2022/11/11 07:26:11;;;;;;;9.55;5.70;;;15.00;99.90;;;;;;4589816;19;20014;-23
2022/11/11 07:27:43;;;;;;;10.82;5.95;;;15.00;99.90;;;;;;4591253;19;20375;-23
2022/11/11 07:29:14;;;;;;;10.55;5.45;;;15.10;99.90;;;;;;4592434;19;20027;-25
2022/11/11 07:30:45;;;;;;;10.38;5.93;;;15.20;99.90;;;;;;4591745;19;20006;-23
2022/11/11 07:32:17;;;;;;;10.10;5.15;;;15.20;99.90;;;;;;4589689;19;20018;-22
2022/11/11 07:33:48;;;;;;;9.02;5.35;;;15.20;99.90;;;;;;4592474;19;20011;-25
2022/11/11 07:35:19;;;;;;;9.70;5.65;;;15.30;99.90;;;;;;4591755;19;20086;-22
2022/11/11 07:36:50;;;;;;;8.32;5.22;;;15.30;99.90;;;;;;4591946;19;20022;-23
2022/11/11 07:38:22;;;;;;;8.35;4.82;;;15.30;99.90;;;;;;4591359;19;20006;-25
2022/11/11 07:39:55;;;;;;;8.75;5.68;;;15.30;99.90;;;;;;4591179;19;20043;-25
2022/11/11 07:41:26;;;;;;;9.35;5.40;;;15.40;99.90;;;;;;4591574;19;20011;-23
2022/11/11 07:42:58;;;;;;;10.25;6.07;;;15.40;99.90;;;;;;4590227;19;20011;-24
2022/11/11 07:44:29;;;;;;;10.63;6.10;;;15.40;99.90;;;;;;4592502;19;20090;-26
2022/11/11 07:46:00;;;;;;;9.15;5.53;;;15.40;99.90;;;;;;4591270;19;20026;-24
2022/11/11 07:47:33;;;;;;;12.35;5.65;;;15.40;99.90;;;;;;4589947;19;20464;-23
2022/11/11 07:49:04;;;;;;;13.25;6.30;;;15.40;99.90;;;;;;4591201;19;20456;-22
2022/11/11 07:50:36;;;;;;;9.90;5.82;;;15.50;99.90;;;;;;4592470;19;20011;-24
2022/11/11 07:52:07;;;;;;;9.95;6.07;;;15.50;99.90;;;;;;4590124;19;20014;-24
2022/11/11 07:53:40;;;;;;;12.27;6.35;;;15.50;99.90;;;;;;4591632;19;20014;-23
2022/11/11 07:55:11;;;;;;;10.38;5.68;;;15.50;99.90;;;;;;4590847;19;20021;-23
2022/11/11 07:56:43;;;;;;;;;;;15.50;99.90;;;;;;4591724;19;20029;-25
2022/11/11 07:58:15;;;;;;;9.38;5.25;;;15.50;99.90;;;;;;4591082;19;20653;-23
2022/11/11 07:59:46;;;;;;;8.98;5.15;;;15.50;99.90;;;;;;4591749;19;20019;-24
2022/11/11 08:01:17;;;;;;;8.70;5.20;;;15.50;99.90;;;;;;4591018;19;20346;-24
2022/11/11 08:02:49;;;;;;;;;;;15.50;99.90;;;;;;4592626;19;20049;-22
2022/11/11 08:04:20;;;;;;;10.52;5.53;;;15.50;99.90;;;;;;4589051;19;19911;-22
2022/11/11 08:05:57;;;;;;;9.75;5.75;;;15.60;99.90;;;;;;4591847;19;20014;-24
2022/11/11 08:07:29;;;;;;;10.15;5.65;;;15.60;99.90;;;;;;4590219;19;20021;-27
2022/11/11 08:09:02;;;;;;;8.80;4.97;;;15.60;99.90;;;;;;4591090;19;20090;-24
2022/11/11 08:10:33;;;;;;;8.32;5.18;;;15.60;99.90;;;;;;4590181;19;20015;-22
2022/11/11 08:13:56;;;;;;;8.25;5.35;;;15.60;99.90;;;;;;4592327;19;20358;-22
2022/11/11 08:15:28;;;;;;;7.70;5.00;;;15.60;99.90;;;;;;4589676;19;20020;-22
2022/11/11 08:16:59;;;;;;;;;;;15.60;99.90;;;;;;4592096;19;20024;-22
2022/11/11 08:18:32;;;;;;;9.23;6.43;;;15.60;99.90;;;;;;4589870;19;19918;-22
2022/11/11 08:20:03;;;;;;;10.70;5.97;;;15.60;99.90;;;;;;4590000;19;20014;-24
2022/11/11 08:21:35;;;;;;;12.73;6.15;;;15.60;99.90;;;;;;4590805;19;20070;-23
2022/11/11 08:23:09;;;;;;;9.80;5.70;;;15.60;99.90;;;;;;4589886;19;20018;-23
2022/11/11 08:24:41;;;;;;;10.20;6.07;;;15.60;99.90;;;;;;4589682;19;20010;-22
2022/11/11 08:26:12;;;;;;;9.52;5.55;;;15.60;99.90;;;;;;4590805;19;20014;-24
2022/11/11 08:27:46;;;;;;;;;;;15.60;99.90;;;;;;4592766;19;20015;-22
2022/11/11 08:29:18;;;;;;;9.52;5.75;;;15.60;99.90;;;;;;4591565;19;19919;-23
2022/11/11 08:30:49;;;;;;;12.43;6.18;;;15.60;99.90;;;;;;4592077;19;20007;-23
2022/11/11 08:32:20;;;;;;;8.90;5.35;;;15.70;99.90;;;;;;4590945;19;20018;-23
2022/11/11 08:33:51;;;;;;;9.25;5.50;;;15.70;99.90;;;;;;4592025;19;20085;-23
2022/11/11 08:35:22;;;;;;;11.23;6.47;;;15.70;99.90;;;;;;4591193;19;20010;-24
2022/11/11 08:36:53;;;;;;;10.85;6.20;;;15.80;99.90;;;;;;4590028;19;19998;-25
2022/11/11 08:38:24;;;;;;;11.52;5.93;;;15.90;99.90;;;;;;4590194;19;20506;-22
2022/11/11 08:39:56;;;;;;;12.38;5.90;;;15.90;99.90;;;;;;4589702;19;20018;-23
2022/11/11 08:41:27;;;;;;;8.32;4.90;;;16.00;99.90;;;;;;4592097;19;20039;-24
2022/11/11 08:42:58;;;;;;;9.77;5.45;;;16.00;99.90;;;;;;4589754;19;20074;-25
2022/11/11 08:44:29;;;;;;;8.63;5.30;;;16.00;99.90;;;;;;4591451;19;20358;-24
2022/11/11 08:46:02;;;;;;;10.20;6.00;;;16.10;99.90;;;;;;4590515;19;20366;-23
2022/11/11 08:47:34;;;;;;;13.00;6.00;;;16.10;99.90;;;;;;4589736;19;20023;-25
2022/11/11 08:49:05;;;;;;;11.15;6.10;;;16.10;99.90;;;;;;4589394;19;20348;-24
2022/11/11 08:50:39;;;;;;;11.48;6.13;;;16.10;99.90;;;;;;4589877;19;20014;-24
2022/11/11 08:52:11;;;;;;;12.00;6.45;;;16.20;99.90;;;;;;4589027;19;20054;-26
2022/11/11 08:53:42;;;;;;;13.05;6.97;;;16.20;99.90;;;;;;4591793;19;20011;-22
2022/11/11 08:55:13;;;;;;;13.52;6.88;;;16.20;99.90;;;;;;4589277;19;20018;-22
2022/11/11 08:56:44;;;;;;;13.65;7.10;;;16.30;99.90;;;;;;4589692;19;20011;-24
2022/11/11 08:58:15;;;;;;;10.82;6.22;;;16.30;99.90;;;;;;4590509;19;20014;-27
2022/11/11 08:59:46;;;;;;;9.63;6.00;;;16.30;99.90;;;;;;4589893;19;20048;-24
2022/11/11 09:01:17;;;;;;;9.88;5.68;;;16.30;99.90;;;;;;4589598;19;20066;-24
2022/11/11 09:02:48;;;;;;;9.40;4.97;;;16.30;99.90;;;;;;4590138;19;20371;-23
2022/11/11 09:04:19;;;;;;;8.52;4.65;;;16.30;99.90;;;;;;4589757;19;20014;-24
2022/11/11 09:05:50;;;;;;;10.75;4.65;;;16.20;99.90;;;;;;4590576;19;20121;-22
2022/11/11 09:07:22;;;;;;;11.15;5.07;;;16.20;99.90;;;;;;4590731;19;20014;-24
2022/11/11 09:08:53;;;;;;;9.20;4.68;;;16.20;99.90;;;;;;4590925;19;20018;-23
2022/11/11 09:10:24;;;;;;;8.82;5.55;;;16.20;99.90;;;;;;4590115;19;20011;-23
2022/11/11 09:11:55;;;;;;;8.77;4.93;;;16.20;99.90;;;;;;4590367;19;20040;-23